createdAt,value
2022-09-07T00:15:29.186Z,7
2022-09-07T00:32:03.775Z,4
2022-09-07T00:48:39.731Z,6
2022-09-07T01:05:15.156Z,5
2022-09-07T01:21:49.711Z,6
2022-09-07T01:38:24.461Z,6
2022-09-07T01:54:59.033Z,6
2022-09-07T02:11:35.174Z,7
2022-09-07T02:28:11.518Z,7
2022-09-07T02:44:46.803Z,7
2022-09-07T03:01:21.558Z,7
2022-09-07T03:17:56.136Z,6
2022-09-07T03:34:31.144Z,7
2022-09-07T03:51:06.319Z,7
2022-09-07T04:07:40.508Z,6
2022-09-07T04:24:15.824Z,6
2022-09-07T04:40:49.981Z,6
2022-09-07T04:57:24.073Z,5
2022-09-07T05:13:59.884Z,6
2022-09-07T05:47:09.149Z,6
2022-09-07T06:03:44.280Z,6
2022-09-07T06:20:19.911Z,6
2022-09-07T06:36:54.474Z,8
2022-09-07T07:10:09.006Z,8
2022-09-07T07:26:47.710Z,7
2022-09-07T07:43:25.771Z,8
2022-09-07T08:00:05.623Z,9
2022-09-07T08:16:45.514Z,9
2022-09-07T08:33:21.180Z,9
2022-09-07T08:50:01.512Z,8
2022-09-07T09:06:42.470Z,8
2022-09-07T09:23:21.950Z,10
2022-09-07T09:40:03.180Z,9
2022-09-07T09:56:43.684Z,8
2022-09-07T10:13:25.959Z,10
2022-09-07T10:30:08.062Z,9
2022-09-07T10:46:57.012Z,9
2022-09-07T11:03:29.894Z,10
2022-09-07T11:20:09.246Z,10
2022-09-07T11:36:49.202Z,11
2022-09-07T11:53:29.304Z,13
2022-09-07T12:10:08.559Z,11
2022-09-07T12:26:48.572Z,11
2022-09-07T12:43:27.658Z,11
2022-09-07T13:00:07.378Z,12
2022-09-07T13:33:26.893Z,12
2022-09-07T13:50:06.548Z,13
2022-09-07T14:06:45.301Z,14
2022-09-07T14:23:24.622Z,14
2022-09-07T14:40:03.769Z,15
2022-09-07T14:56:42.797Z,13
2022-09-07T15:13:21.701Z,13
2022-09-07T15:30:00.383Z,14
2022-09-07T15:46:39.623Z,14
2022-09-07T16:19:57.635Z,14
2022-09-07T16:36:36.511Z,13
2022-09-07T16:53:14.996Z,15
2022-09-07T17:09:52.764Z,13
2022-09-07T17:26:31.359Z,12
2022-09-07T18:00:13.501Z,9
2022-09-07T18:16:24.880Z,9
2022-09-07T18:33:02.828Z,9
2022-09-07T18:49:39.698Z,8
2022-09-07T19:06:15.389Z,8
2022-09-07T19:22:52.485Z,11
2022-09-07T19:39:28.566Z,10
2022-09-07T19:56:04.884Z,10
2022-09-07T20:12:40.485Z,9
2022-09-07T20:29:27.279Z,7
2022-09-07T20:45:52.633Z,8
2022-09-07T21:02:29.320Z,7
2022-09-07T21:19:05.654Z,7
2022-09-07T21:35:41.661Z,6
2022-09-07T21:52:16.949Z,7
2022-09-07T22:08:53.173Z,7
2022-09-07T22:25:28.788Z,6
2022-09-07T22:42:03.381Z,7
2022-09-07T22:58:34.932Z,7
2022-09-07T23:15:09.459Z,8
2022-09-07T23:31:45.265Z,7
2022-09-07T23:48:21.326Z,7
